sensor_id;sensor_type;location;lat;lon;timestamp;pressure;altitude;pressure_sealevel;temperature;humidity
79584;BME280;69053;57.338;18.700;2023-05-29T00:02:29;101744.03;;;10.23;65.54
79584;BME280;69053;57.338;18.700;2023-05-29T00:07:30;101747.34;;;10.34;64.85
79584;BME280;69053;57.338;18.700;2023-05-29T00:12:30;101743.28;;;10.44;64.33
79584;BME280;69053;57.338;18.700;2023-05-29T00:17:31;101754.09;;;10.53;63.99
79584;BME280;69053;57.338;18.700;2023-05-29T00:22:35;101757.09;;;10.58;63.75
79584;BME280;69053;57.338;18.700;2023-05-29T00:27:37;101759.03;;;10.64;62.99
79584;BME280;69053;57.338;18.700;2023-05-29T00:32:37;101758.91;;;10.72;62.84
79584;BME280;69053;57.338;18.700;2023-05-29T00:37:38;101760.63;;;10.73;62.66
79584;BME280;69053;57.338;18.700;2023-05-29T00:42:38;101769.63;;;10.74;62.88
79584;BME280;69053;57.338;18.700;2023-05-29T00:47:41;101766.91;;;10.74;62.56
79584;BME280;69053;57.338;18.700;2023-05-29T00:52:43;101761.47;;;10.74;63.10
79584;BME280;69053;57.338;18.700;2023-05-29T00:57:44;101772.75;;;10.70;62.83
79584;BME280;69053;57.338;18.700;2023-05-29T01:02:47;101770.38;;;10.67;63.23
79584;BME280;69053;57.338;18.700;2023-05-29T01:07:48;101775.66;;;10.69;63.09
79584;BME280;69053;57.338;18.700;2023-05-29T01:12:52;101771.53;;;10.73;62.90
79584;BME280;69053;57.338;18.700;2023-05-29T01:28:52;101772.75;;;10.70;63.17
79584;BME280;69053;57.338;18.700;2023-05-29T01:33:56;101777.34;;;10.70;63.30
79584;BME280;69053;57.338;18.700;2023-05-29T01:38:59;101771.25;;;10.68;63.28
79584;BME280;69053;57.338;18.700;2023-05-29T01:44:02;101773.53;;;10.64;63.57
79584;BME280;69053;57.338;18.700;2023-05-29T01:49:04;101770.13;;;10.62;63.52
79584;BME280;69053;57.338;18.700;2023-05-29T01:54:05;101775.09;;;10.59;63.19
79584;BME280;69053;57.338;18.700;2023-05-29T01:59:06;101777.56;;;10.54;63.41
79584;BME280;69053;57.338;18.700;2023-05-29T02:04:07;101771.81;;;10.48;63.57
79584;BME280;69053;57.338;18.700;2023-05-29T02:09:07;101773.25;;;10.44;64.15
79584;BME280;69053;57.338;18.700;2023-05-29T02:14:08;101778.88;;;10.43;64.46
79584;BME280;69053;57.338;18.700;2023-05-29T02:19:09;101787.88;;;10.43;64.65
79584;BME280;69053;57.338;18.700;2023-05-29T02:24:10;101779.94;;;10.42;64.83
79584;BME280;69053;57.338;18.700;2023-05-29T02:29:10;101772.78;;;10.41;64.82
79584;BME280;69053;57.338;18.700;2023-05-29T02:34:11;101770.25;;;10.39;65.41
79584;BME280;69053;57.338;18.700;2023-05-29T02:39:11;101788.00;;;10.35;65.53
79584;BME280;69053;57.338;18.700;2023-05-29T02:44:14;101782.81;;;10.25;65.95
79584;BME280;69053;57.338;18.700;2023-05-29T02:49:14;101790.03;;;10.18;66.56
79584;BME280;69053;57.338;18.700;2023-05-29T02:54:15;101790.13;;;10.10;66.65
79584;BME280;69053;57.338;18.700;2023-05-29T02:59:15;101790.69;;;10.05;66.97
79584;BME280;69053;57.338;18.700;2023-05-29T03:04:16;101789.84;;;10.05;66.79
79584;BME280;69053;57.338;18.700;2023-05-29T03:09:17;101797.16;;;10.04;67.21
79584;BME280;69053;57.338;18.700;2023-05-29T03:14:19;101796.13;;;10.05;66.67
79584;BME280;69053;57.338;18.700;2023-05-29T03:19:25;101806.28;;;10.11;66.77
79584;BME280;69053;57.338;18.700;2023-05-29T03:24:36;101818.03;;;10.27;66.44
79584;BME280;69053;57.338;18.700;2023-05-29T03:29:41;101819.75;;;10.43;65.70
79584;BME280;69053;57.338;18.700;2023-05-29T03:34:42;101818.88;;;10.57;65.25
79584;BME280;69053;57.338;18.700;2023-05-29T03:39:45;101816.25;;;10.64;65.26
79584;BME280;69053;57.338;18.700;2023-05-29T03:44:50;101825.28;;;10.64;64.96
79584;BME280;69053;57.338;18.700;2023-05-29T03:49:52;101829.50;;;10.67;64.78
79584;BME280;69053;57.338;18.700;2023-05-29T03:54:57;101838.13;;;10.70;65.27
79584;BME280;69053;57.338;18.700;2023-05-29T03:59:59;101833.94;;;10.68;65.06
79584;BME280;69053;57.338;18.700;2023-05-29T04:05:01;101839.38;;;10.68;64.81
79584;BME280;69053;57.338;18.700;2023-05-29T04:10:03;101833.56;;;10.71;65.08
79584;BME280;69053;57.338;18.700;2023-05-29T04:15:04;101827.78;;;10.81;64.72
79584;BME280;69053;57.338;18.700;2023-05-29T04:20:06;101834.91;;;10.97;64.80
79584;BME280;69053;57.338;18.700;2023-05-29T04:25:10;101826.97;;;11.17;64.65
79584;BME280;69053;57.338;18.700;2023-05-29T04:30:10;101832.63;;;11.37;64.29
79584;BME280;69053;57.338;18.700;2023-05-29T04:35:12;101827.34;;;11.57;63.52
79584;BME280;69053;57.338;18.700;2023-05-29T04:40:14;101827.94;;;11.74;63.00
79584;BME280;69053;57.338;18.700;2023-05-29T04:45:21;101816.38;;;11.93;62.71
79584;BME280;69053;57.338;18.700;2023-05-29T04:50:23;101831.22;;;12.12;61.52
79584;BME280;69053;57.338;18.700;2023-05-29T04:55:25;101826.94;;;12.31;60.87
79584;BME280;69053;57.338;18.700;2023-05-29T05:00:31;101827.28;;;12.50;60.26
79584;BME280;69053;57.338;18.700;2023-05-29T05:05:36;101834.47;;;12.64;59.84
79584;BME280;69053;57.338;18.700;2023-05-29T05:10:39;101815.66;;;12.83;59.18
79584;BME280;69053;57.338;18.700;2023-05-29T05:15:43;101828.34;;;13.04;58.12
79584;BME280;69053;57.338;18.700;2023-05-29T05:20:45;101833.41;;;13.20;58.07
79584;BME280;69053;57.338;18.700;2023-05-29T05:25:47;101831.19;;;13.37;58.03
79584;BME280;69053;57.338;18.700;2023-05-29T05:30:53;101833.53;;;13.54;57.63
79584;BME280;69053;57.338;18.700;2023-05-29T05:36:02;101835.03;;;13.76;57.00
79584;BME280;69053;57.338;18.700;2023-05-29T05:41:04;101835.47;;;14.00;55.61
79584;BME280;69053;57.338;18.700;2023-05-29T05:46:07;101837.75;;;14.16;54.82
79584;BME280;69053;57.338;18.700;2023-05-29T05:51:11;101844.25;;;14.35;54.79
79584;BME280;69053;57.338;18.700;2023-05-29T05:56:14;101841.47;;;14.55;54.08
79584;BME280;69053;57.338;18.700;2023-05-29T06:01:16;101847.78;;;14.69;53.94
79584;BME280;69053;57.338;18.700;2023-05-29T06:06:19;101846.28;;;14.80;53.42
79584;BME280;69053;57.338;18.700;2023-05-29T06:11:21;101845.56;;;15.05;53.50
79584;BME280;69053;57.338;18.700;2023-05-29T06:16:24;101854.13;;;15.22;52.13
79584;BME280;69053;57.338;18.700;2023-05-29T06:21:26;101882.56;;;15.34;52.44
79584;BME280;69053;57.338;18.700;2023-05-29T06:26:28;101886.75;;;15.36;53.10
79584;BME280;69053;57.338;18.700;2023-05-29T06:31:30;101894.91;;;15.56;52.96
79584;BME280;69053;57.338;18.700;2023-05-29T06:36:35;101888.28;;;15.64;51.50
79584;BME280;69053;57.338;18.700;2023-05-29T06:41:39;101900.19;;;15.90;51.03
79584;BME280;69053;57.338;18.700;2023-05-29T06:46:42;101894.81;;;16.02;50.50
79584;BME280;69053;57.338;18.700;2023-05-29T06:51:44;101902.28;;;16.20;50.39
79584;BME280;69053;57.338;18.700;2023-05-29T06:56:48;101889.81;;;16.42;50.12
79584;BME280;69053;57.338;18.700;2023-05-29T07:01:50;101894.72;;;16.59;52.50
79584;BME280;69053;57.338;18.700;2023-05-29T07:06:52;101906.41;;;16.73;53.87
79584;BME280;69053;57.338;18.700;2023-05-29T07:11:56;101906.81;;;16.76;53.95
79584;BME280;69053;57.338;18.700;2023-05-29T07:16:58;101905.56;;;16.97;53.76
79584;BME280;69053;57.338;18.700;2023-05-29T07:22:01;101905.78;;;16.96;53.63
79584;BME280;69053;57.338;18.700;2023-05-29T07:27:03;101912.63;;;17.23;54.15
79584;BME280;69053;57.338;18.700;2023-05-29T07:32:05;101919.47;;;17.51;53.36
79584;BME280;69053;57.338;18.700;2023-05-29T07:37:11;101914.47;;;17.60;53.06
79584;BME280;69053;57.338;18.700;2023-05-29T07:42:13;101923.16;;;17.75;52.91
79584;BME280;69053;57.338;18.700;2023-05-29T07:47:15;101933.41;;;17.38;52.71
79584;BME280;69053;57.338;18.700;2023-05-29T07:52:16;101926.09;;;17.32;52.88
79584;BME280;69053;57.338;18.700;2023-05-29T07:57:19;101938.56;;;17.65;52.17
79584;BME280;69053;57.338;18.700;2023-05-29T08:02:25;101938.25;;;17.73;52.73
79584;BME280;69053;57.338;18.700;2023-05-29T08:07:28;101945.28;;;17.69;51.93
79584;BME280;69053;57.338;18.700;2023-05-29T08:12:30;101932.75;;;17.73;53.14
79584;BME280;69053;57.338;18.700;2023-05-29T08:17:37;101944.50;;;18.10;51.11
79584;BME280;69053;57.338;18.700;2023-05-29T08:22:39;101946.91;;;18.18;51.88
79584;BME280;69053;57.338;18.700;2023-05-29T08:27:42;101943.19;;;18.25;51.30
79584;BME280;69053;57.338;18.700;2023-05-29T08:32:44;101948.13;;;18.23;50.90
79584;BME280;69053;57.338;18.700;2023-05-29T08:37:47;101956.16;;;18.48;50.27
79584;BME280;69053;57.338;18.700;2023-05-29T08:42:56;101964.69;;;18.82;50.05
79584;BME280;69053;57.338;18.700;2023-05-29T08:48:04;101958.25;;;19.00;48.95
79584;BME280;69053;57.338;18.700;2023-05-29T08:53:07;101957.72;;;19.03;49.24
79584;BME280;69053;57.338;18.700;2023-05-29T08:58:09;101974.25;;;19.26;48.56
79584;BME280;69053;57.338;18.700;2023-05-29T09:03:13;101967.25;;;19.36;49.02
79584;BME280;69053;57.338;18.700;2023-05-29T09:08:21;101971.38;;;19.21;49.05
79584;BME280;69053;57.338;18.700;2023-05-29T09:13:27;101974.09;;;19.45;48.73
79584;BME280;69053;57.338;18.700;2023-05-29T09:18:34;101978.53;;;19.46;47.75
79584;BME280;69053;57.338;18.700;2023-05-29T09:29:42;101983.38;;;19.27;48.04
79584;BME280;69053;57.338;18.700;2023-05-29T09:34:45;101978.75;;;19.16;49.19
79584;BME280;69053;57.338;18.700;2023-05-29T09:39:52;101976.31;;;19.19;49.84
79584;BME280;69053;57.338;18.700;2023-05-29T09:44:55;101988.75;;;19.45;49.01
79584;BME280;69053;57.338;18.700;2023-05-29T09:50:00;101981.16;;;19.53;48.30
79584;BME280;69053;57.338;18.700;2023-05-29T09:55:04;101995.09;;;19.46;48.57
79584;BME280;69053;57.338;18.700;2023-05-29T10:00:09;101993.31;;;19.52;48.59
79584;BME280;69053;57.338;18.700;2023-05-29T10:05:14;101994.75;;;19.42;48.42
79584;BME280;69053;57.338;18.700;2023-05-29T10:10:20;102000.56;;;19.29;48.55
79584;BME280;69053;57.338;18.700;2023-05-29T10:15:27;101999.59;;;19.23;48.98
79584;BME280;69053;57.338;18.700;2023-05-29T10:20:33;101988.06;;;19.38;49.14
79584;BME280;69053;57.338;18.700;2023-05-29T10:25:42;102003.38;;;19.58;48.42
79584;BME280;69053;57.338;18.700;2023-05-29T10:31:05;101988.22;;;19.60;48.35
79584;BME280;69053;57.338;18.700;2023-05-29T10:51:51;101990.31;;;19.53;48.73
79584;BME280;69053;57.338;18.700;2023-05-29T10:56:55;101990.59;;;19.68;48.41
79584;BME280;69053;57.338;18.700;2023-05-29T11:01:58;101990.06;;;19.55;47.84
79584;BME280;69053;57.338;18.700;2023-05-29T11:07:06;101994.38;;;19.51;47.87
79584;BME280;69053;57.338;18.700;2023-05-29T11:12:25;101994.97;;;19.53;48.27
79584;BME280;69053;57.338;18.700;2023-05-29T11:27:56;101994.31;;;19.22;48.50
79584;BME280;69053;57.338;18.700;2023-05-29T11:33:03;101993.25;;;19.23;49.14
79584;BME280;69053;57.338;18.700;2023-05-29T11:38:07;101997.25;;;19.56;48.62
79584;BME280;69053;57.338;18.700;2023-05-29T11:43:12;102010.25;;;19.43;49.12
79584;BME280;69053;57.338;18.700;2023-05-29T11:48:13;102005.25;;;19.81;48.40
79584;BME280;69053;57.338;18.700;2023-05-29T11:53:16;102011.31;;;19.95;48.26
79584;BME280;69053;57.338;18.700;2023-05-29T11:58:20;101999.72;;;20.43;47.17
79584;BME280;69053;57.338;18.700;2023-05-29T12:03:22;102004.94;;;20.57;46.65
79584;BME280;69053;57.338;18.700;2023-05-29T12:08:26;102022.06;;;20.71;46.36
79584;BME280;69053;57.338;18.700;2023-05-29T12:13:31;102015.25;;;20.61;46.43
79584;BME280;69053;57.338;18.700;2023-05-29T12:18:37;102027.53;;;20.66;45.90
79584;BME280;69053;57.338;18.700;2023-05-29T12:23:41;102038.72;;;20.59;46.47
79584;BME280;69053;57.338;18.700;2023-05-29T12:28:45;102047.44;;;21.19;45.38
79584;BME280;69053;57.338;18.700;2023-05-29T12:34:02;102036.38;;;21.85;44.11
79584;BME280;69053;57.338;18.700;2023-05-29T12:39:13;102037.81;;;22.15;43.30
79584;BME280;69053;57.338;18.700;2023-05-29T12:44:20;102021.69;;;22.12;43.56
79584;BME280;69053;57.338;18.700;2023-05-29T12:49:27;102040.81;;;22.08;44.00
79584;BME280;69053;57.338;18.700;2023-05-29T12:54:31;102044.69;;;21.41;44.34
79584;BME280;69053;57.338;18.700;2023-05-29T12:59:36;102036.94;;;20.19;46.37
79584;BME280;69053;57.338;18.700;2023-05-29T13:04:37;102045.97;;;19.33;48.23
79584;BME280;69053;57.338;18.700;2023-05-29T13:09:43;102052.94;;;19.24;48.91
79584;BME280;69053;57.338;18.700;2023-05-29T13:14:45;102038.50;;;19.22;48.79
79584;BME280;69053;57.338;18.700;2023-05-29T13:19:46;102032.91;;;18.93;49.42
79584;BME280;69053;57.338;18.700;2023-05-29T13:24:49;102036.47;;;18.82;49.48
79584;BME280;69053;57.338;18.700;2023-05-29T13:29:53;102034.06;;;18.73;50.24
79584;BME280;69053;57.338;18.700;2023-05-29T13:34:56;102031.81;;;18.28;50.98
79584;BME280;69053;57.338;18.700;2023-05-29T13:39:59;102024.97;;;17.89;52.03
79584;BME280;69053;57.338;18.700;2023-05-29T13:45:04;102025.44;;;18.16;51.57
79584;BME280;69053;57.338;18.700;2023-05-29T13:50:10;102024.31;;;18.59;51.27
79584;BME280;69053;57.338;18.700;2023-05-29T13:55:14;102027.31;;;19.40;49.59
79584;BME280;69053;57.338;18.700;2023-05-29T14:00:20;102019.44;;;19.73;49.07
79584;BME280;69053;57.338;18.700;2023-05-29T14:05:25;102023.69;;;20.21;47.89
79584;BME280;69053;57.338;18.700;2023-05-29T14:10:27;102019.59;;;19.54;49.34
79584;BME280;69053;57.338;18.700;2023-05-29T14:15:32;102018.50;;;19.67;49.48
79584;BME280;69053;57.338;18.700;2023-05-29T14:20:35;102016.44;;;19.74;48.96
79584;BME280;69053;57.338;18.700;2023-05-29T14:25:41;102014.53;;;18.87;50.88
79584;BME280;69053;57.338;18.700;2023-05-29T14:30:43;102016.09;;;18.95;51.14
79584;BME280;69053;57.338;18.700;2023-05-29T14:35:49;102012.47;;;18.82;51.37
79584;BME280;69053;57.338;18.700;2023-05-29T14:40:53;102012.94;;;19.15;51.28
79584;BME280;69053;57.338;18.700;2023-05-29T14:45:56;102006.59;;;19.14;51.10
79584;BME280;69053;57.338;18.700;2023-05-29T14:51:02;102003.72;;;19.21;51.11
79584;BME280;69053;57.338;18.700;2023-05-29T14:56:08;101997.72;;;19.00;51.01
79584;BME280;69053;57.338;18.700;2023-05-29T15:01:15;101984.63;;;18.48;52.44
79584;BME280;69053;57.338;18.700;2023-05-29T15:06:21;101990.81;;;18.32;52.71
79584;BME280;69053;57.338;18.700;2023-05-29T15:11:30;101985.81;;;18.52;52.66
79584;BME280;69053;57.338;18.700;2023-05-29T15:16:33;101983.63;;;18.54;52.64
79584;BME280;69053;57.338;18.700;2023-05-29T15:21:37;101986.03;;;18.39;52.76
79584;BME280;69053;57.338;18.700;2023-05-29T15:26:40;101979.63;;;18.15;52.96
79584;BME280;69053;57.338;18.700;2023-05-29T15:31:44;101981.38;;;18.40;53.15
79584;BME280;69053;57.338;18.700;2023-05-29T15:36:51;101979.34;;;18.59;52.60
79584;BME280;69053;57.338;18.700;2023-05-29T15:41:56;101977.16;;;18.49;53.08
79584;BME280;69053;57.338;18.700;2023-05-29T15:47:02;101977.19;;;17.95;54.01
79584;BME280;69053;57.338;18.700;2023-05-29T15:52:04;101976.56;;;17.44;55.09
79584;BME280;69053;57.338;18.700;2023-05-29T15:57:07;101971.06;;;16.89;56.89
79584;BME280;69053;57.338;18.700;2023-05-29T16:02:12;101955.66;;;16.37;58.26
79584;BME280;69053;57.338;18.700;2023-05-29T16:07:14;101952.34;;;16.28;58.43
79584;BME280;69053;57.338;18.700;2023-05-29T16:12:19;101955.56;;;16.19;58.71
79584;BME280;69053;57.338;18.700;2023-05-29T16:17:21;101956.56;;;15.99;59.63
79584;BME280;69053;57.338;18.700;2023-05-29T16:22:24;101956.13;;;16.02;59.88
79584;BME280;69053;57.338;18.700;2023-05-29T16:27:27;101944.47;;;16.32;59.44
79584;BME280;69053;57.338;18.700;2023-05-29T16:32:30;101957.59;;;16.55;59.15
79584;BME280;69053;57.338;18.700;2023-05-29T16:37:33;101961.50;;;16.91;58.05
79584;BME280;69053;57.338;18.700;2023-05-29T16:42:37;101956.84;;;17.29;57.58
79584;BME280;69053;57.338;18.700;2023-05-29T16:47:41;101939.44;;;17.77;55.99
79584;BME280;69053;57.338;18.700;2023-05-29T16:52:46;101936.69;;;17.77;55.71
79584;BME280;69053;57.338;18.700;2023-05-29T16:57:56;101947.25;;;17.80;55.73
79584;BME280;69053;57.338;18.700;2023-05-29T17:03:00;101949.72;;;17.88;55.47
79584;BME280;69053;57.338;18.700;2023-05-29T17:08:13;101956.63;;;17.30;56.32
79584;BME280;69053;57.338;18.700;2023-05-29T17:13:31;101946.00;;;16.97;57.23
79584;BME280;69053;57.338;18.700;2023-05-29T17:18:32;101940.47;;;16.53;58.78
79584;BME280;69053;57.338;18.700;2023-05-29T17:23:33;101939.03;;;16.25;60.18
79584;BME280;69053;57.338;18.700;2023-05-29T17:28:36;101938.97;;;16.32;59.80
79584;BME280;69053;57.338;18.700;2023-05-29T17:33:42;101948.47;;;16.11;60.42
79584;BME280;69053;57.338;18.700;2023-05-29T17:38:47;101936.06;;;15.63;61.24
79584;BME280;69053;57.338;18.700;2023-05-29T17:43:52;101942.59;;;15.24;62.37
79584;BME280;69053;57.338;18.700;2023-05-29T17:48:54;101951.75;;;14.97;63.49
79584;BME280;69053;57.338;18.700;2023-05-29T17:54:00;101950.06;;;14.90;63.65
79584;BME280;69053;57.338;18.700;2023-05-29T17:59:05;101952.22;;;14.74;64.42
79584;BME280;69053;57.338;18.700;2023-05-29T18:04:12;101965.94;;;14.48;65.55
79584;BME280;69053;57.338;18.700;2023-05-29T18:09:19;101963.16;;;14.07;66.75
79584;BME280;69053;57.338;18.700;2023-05-29T18:14:21;101973.06;;;13.95;67.34
79584;BME280;69053;57.338;18.700;2023-05-29T18:19:26;101973.22;;;13.74;67.91
79584;BME280;69053;57.338;18.700;2023-05-29T18:24:30;101977.78;;;13.60;68.19
79584;BME280;69053;57.338;18.700;2023-05-29T18:29:36;101973.94;;;13.41;68.93
79584;BME280;69053;57.338;18.700;2023-05-29T18:34:42;101964.78;;;13.27;69.23
79584;BME280;69053;57.338;18.700;2023-05-29T18:39:45;101967.00;;;13.03;69.97
79584;BME280;69053;57.338;18.700;2023-05-29T18:44:49;101981.78;;;12.81;70.61
79584;BME280;69053;57.338;18.700;2023-05-29T18:49:50;101971.75;;;12.60;71.29
79584;BME280;69053;57.338;18.700;2023-05-29T18:54:56;101979.19;;;12.44;71.63
79584;BME280;69053;57.338;18.700;2023-05-29T19:00:02;101986.81;;;12.27;71.92
79584;BME280;69053;57.338;18.700;2023-05-29T19:05:08;101986.13;;;11.97;73.22
79584;BME280;69053;57.338;18.700;2023-05-29T19:10:12;101979.19;;;11.79;73.20
79584;BME280;69053;57.338;18.700;2023-05-29T19:15:14;101989.50;;;11.62;73.60
79584;BME280;69053;57.338;18.700;2023-05-29T19:20:14;101982.56;;;11.45;74.46
79584;BME280;69053;57.338;18.700;2023-05-29T19:25:19;101991.16;;;11.27;74.00
79584;BME280;69053;57.338;18.700;2023-05-29T19:30:24;101995.94;;;11.10;74.34
79584;BME280;69053;57.338;18.700;2023-05-29T19:35:32;101995.69;;;10.90;75.04
79584;BME280;69053;57.338;18.700;2023-05-29T19:40:40;102004.28;;;10.79;74.97
79584;BME280;69053;57.338;18.700;2023-05-29T19:45:46;101996.47;;;10.61;75.35
79584;BME280;69053;57.338;18.700;2023-05-29T19:50:48;101994.25;;;10.41;75.09
79584;BME280;69053;57.338;18.700;2023-05-29T19:55:53;101991.72;;;10.17;74.90
79584;BME280;69053;57.338;18.700;2023-05-29T20:01:01;101985.94;;;9.88;75.73
79584;BME280;69053;57.338;18.700;2023-05-29T20:06:07;101981.19;;;9.59;75.64
79584;BME280;69053;57.338;18.700;2023-05-29T20:11:10;101985.19;;;9.40;75.51
79584;BME280;69053;57.338;18.700;2023-05-29T20:16:16;101989.84;;;9.23;74.95
79584;BME280;69053;57.338;18.700;2023-05-29T20:21:25;101993.00;;;9.04;75.74
79584;BME280;69053;57.338;18.700;2023-05-29T20:26:30;102000.19;;;8.80;76.58
79584;BME280;69053;57.338;18.700;2023-05-29T20:31:34;101995.13;;;8.60;76.50
79584;BME280;69053;57.338;18.700;2023-05-29T20:36:40;101999.22;;;8.56;76.07
79584;BME280;69053;57.338;18.700;2023-05-29T20:41:43;101994.13;;;8.53;76.78
79584;BME280;69053;57.338;18.700;2023-05-29T20:46:46;101991.25;;;8.47;76.25
79584;BME280;69053;57.338;18.700;2023-05-29T20:51:53;101991.69;;;8.34;76.36
79584;BME280;69053;57.338;18.700;2023-05-29T20:57:00;101988.34;;;8.23;76.63
79584;BME280;69053;57.338;18.700;2023-05-29T21:02:05;101986.63;;;8.22;76.30
79584;BME280;69053;57.338;18.700;2023-05-29T21:07:08;101982.38;;;8.28;76.30
79584;BME280;69053;57.338;18.700;2023-05-29T21:12:13;101975.94;;;8.37;76.18
79584;BME280;69053;57.338;18.700;2023-05-29T21:17:15;101986.81;;;8.45;76.25
79584;BME280;69053;57.338;18.700;2023-05-29T21:22:22;101989.38;;;8.55;76.21
79584;BME280;69053;57.338;18.700;2023-05-29T21:27:27;101985.81;;;8.63;76.87
79584;BME280;69053;57.338;18.700;2023-05-29T21:32:30;101979.66;;;8.69;76.99
79584;BME280;69053;57.338;18.700;2023-05-29T21:37:43;101980.16;;;8.73;77.41
79584;BME280;69053;57.338;18.700;2023-05-29T21:42:44;101981.34;;;8.78;77.61
79584;BME280;69053;57.338;18.700;2023-05-29T21:47:48;101970.63;;;8.85;77.36
79584;BME280;69053;57.338;18.700;2023-05-29T21:52:48;101970.28;;;8.88;77.76
79584;BME280;69053;57.338;18.700;2023-05-29T21:57:51;101966.88;;;8.94;77.42
79584;BME280;69053;57.338;18.700;2023-05-29T22:02:57;101965.84;;;8.95;77.51
79584;BME280;69053;57.338;18.700;2023-05-29T22:08:00;101971.97;;;8.97;78.11
79584;BME280;69053;57.338;18.700;2023-05-29T22:13:07;101977.91;;;9.01;78.28
79584;BME280;69053;57.338;18.700;2023-05-29T22:18:14;101972.63;;;9.08;78.24
79584;BME280;69053;57.338;18.700;2023-05-29T22:23:19;101976.00;;;9.10;78.59
79584;BME280;69053;57.338;18.700;2023-05-29T22:28:24;101975.66;;;9.13;78.73
79584;BME280;69053;57.338;18.700;2023-05-29T22:33:28;101984.97;;;9.18;78.96
79584;BME280;69053;57.338;18.700;2023-05-29T22:38:31;101971.22;;;9.12;78.84
79584;BME280;69053;57.338;18.700;2023-05-29T22:43:33;101976.00;;;9.10;79.43
79584;BME280;69053;57.338;18.700;2023-05-29T22:48:39;101973.28;;;9.10;79.16
79584;BME280;69053;57.338;18.700;2023-05-29T22:53:42;101973.94;;;9.12;78.98
79584;BME280;69053;57.338;18.700;2023-05-29T22:59:11;101972.94;;;9.13;79.63
79584;BME280;69053;57.338;18.700;2023-05-29T23:04:18;101975.13;;;9.09;79.53
79584;BME280;69053;57.338;18.700;2023-05-29T23:09:27;101970.38;;;9.11;79.15
79584;BME280;69053;57.338;18.700;2023-05-29T23:14:33;101967.66;;;9.11;78.94
79584;BME280;69053;57.338;18.700;2023-05-29T23:19:37;101978.22;;;9.06;79.06
79584;BME280;69053;57.338;18.700;2023-05-29T23:24:44;101977.56;;;8.96;80.04
79584;BME280;69053;57.338;18.700;2023-05-29T23:29:46;101980.13;;;8.89;79.62
79584;BME280;69053;57.338;18.700;2023-05-29T23:34:49;101982.88;;;8.81;79.70
79584;BME280;69053;57.338;18.700;2023-05-29T23:39:56;101984.25;;;8.69;80.30
79584;BME280;69053;57.338;18.700;2023-05-29T23:45:01;101982.22;;;8.62;80.75
79584;BME280;69053;57.338;18.700;2023-05-29T23:50:09;101992.25;;;8.54;81.18
79584;BME280;69053;57.338;18.700;2023-05-29T23:55:14;101999.06;;;8.50;80.90
